Terminal Aerodrome Forecast
Issued by NWS Charleston, WV

Current Version | Previous Version | Graphics & Text | Print | Product List | Glossary Off
Versions: 1 2 3 4 5 6 7 8 9 10 11 12 13 14 15 16 17 18 19 20 21 22 23 24 25 26 27 28 29 30 31 32

000
FTUS41 KRLX 310207 AAA
TAFEKN
TAF AMD
KEKN 310207Z 3102/3124 VRB02KT P6SM BKN050
     FM310500 00000KT 4SM BR SCT040
     FM310700 00000KT 1/2SM FG OVC001
     FM310900 00000KT 1/4SM FG VV001
     FM311300 VRB03KT 2SM BR BKN003
     FM311500 24004KT P6SM BKN020
     FM311700 25005KT P6SM VCTS SCT035CB
     FM312100 27004KT P6SM SCT045=

USA.gov is the U.S. government's official web portal to all federal, state and local government web resources and services.